createdAt,value
2022-12-01T00:01:55.884Z,12.50
2022-12-01T00:04:22.167Z,12.76
2022-12-01T00:06:48.437Z,13.80
2022-12-01T00:09:19.420Z,14.08
2022-12-01T00:11:46.321Z,15.08
2022-12-01T00:14:12.578Z,16.09
2022-12-01T00:16:38.868Z,16.44
2022-12-01T00:19:05.181Z,16.15
2022-12-01T00:21:31.446Z,16.47
2022-12-01T00:23:57.709Z,16.89
2022-12-01T00:26:23.979Z,16.82
2022-12-01T00:28:50.252Z,17.55
2022-12-01T00:31:16.595Z,17.70
2022-12-01T00:33:42.911Z,17.82
2022-12-01T00:36:09.188Z,17.01
2022-12-01T00:38:35.453Z,17.28
2022-12-01T00:41:01.706Z,17.59
2022-12-01T00:43:27.983Z,17.44
2022-12-01T00:45:54.307Z,18.28
2022-12-01T00:48:20.630Z,17.98
2022-12-01T00:50:46.883Z,18.02
2022-12-01T00:53:13.161Z,18.26
2022-12-01T00:55:39.401Z,18.05
2022-12-01T00:58:05.677Z,17.56
2022-12-01T01:00:31.957Z,17.48
2022-12-01T01:02:58.220Z,17.84
2022-12-01T01:05:24.481Z,17.16
2022-12-01T01:07:50.826Z,17.64
2022-12-01T01:10:17.107Z,17.12
2022-12-01T01:12:43.370Z,17.77
2022-12-01T01:15:09.621Z,17.42
2022-12-01T01:17:35.887Z,17.10
2022-12-01T01:20:02.151Z,16.67
2022-12-01T01:22:28.393Z,17.47
2022-12-01T01:24:54.641Z,17.06
2022-12-01T01:27:20.925Z,17.09
2022-12-01T01:29:47.526Z,17.10
2022-12-01T01:32:14.095Z,17.09
2022-12-01T01:34:40.374Z,16.57
2022-12-01T01:37:06.657Z,17.04
2022-12-01T01:39:32.951Z,17.05
2022-12-01T01:41:59.213Z,17.37
2022-12-01T01:44:25.472Z,16.53
2022-12-01T01:46:51.742Z,16.75
2022-12-01T01:49:18.018Z,16.08
2022-12-01T01:51:44.281Z,16.38
2022-12-01T01:54:10.555Z,16.17
2022-12-01T01:56:36.814Z,16.04
2022-12-01T01:59:03.077Z,16.28
2022-12-01T02:01:29.365Z,16.81
2022-12-01T02:03:55.676Z,16.40
2022-12-01T02:06:21.973Z,16.66
2022-12-01T02:08:48.233Z,17.53
2022-12-01T02:11:14.563Z,16.95
2022-12-01T02:13:40.842Z,17.08
2022-12-01T02:16:07.094Z,16.56
2022-12-01T02:18:33.355Z,16.43
2022-12-01T02:20:59.621Z,16.73
2022-12-01T02:23:25.910Z,16.82
2022-12-01T02:25:52.164Z,16.64
2022-12-01T02:28:18.433Z,16.57
2022-12-01T02:30:44.726Z,16.52
2022-12-01T02:33:11.042Z,16.54
2022-12-01T02:35:37.301Z,16.54
2022-12-01T02:38:03.553Z,16.32
2022-12-01T02:40:29.800Z,15.81
2022-12-01T02:42:56.082Z,16.45
2022-12-01T02:45:22.350Z,16.48
2022-12-01T02:47:48.621Z,16.34
2022-12-01T02:50:14.878Z,16.33
2022-12-01T02:52:41.150Z,16.59
2022-12-01T02:55:07.429Z,15.88
2022-12-01T02:57:33.710Z,15.84
2022-12-01T02:59:59.987Z,16.09
2022-12-01T03:02:26.261Z,14.88
2022-12-01T03:04:52.551Z,15.42
2022-12-01T03:07:18.921Z,15.71
2022-12-01T03:09:45.317Z,15.60
2022-12-01T03:12:11.592Z,14.60
2022-12-01T03:14:37.846Z,15.30
2022-12-01T03:17:04.115Z,14.70
2022-12-01T03:19:30.356Z,14.56
2022-12-01T03:21:56.601Z,14.44
2022-12-01T03:24:22.933Z,14.93
2022-12-01T03:26:49.186Z,14.74
2022-12-01T03:29:15.445Z,13.98
2022-12-01T03:31:41.768Z,14.81
2022-12-01T03:34:08.077Z,14.38
2022-12-01T03:36:34.337Z,13.91
2022-12-01T03:39:00.646Z,13.93
2022-12-01T03:41:26.906Z,13.94
2022-12-01T03:43:53.172Z,14.41
2022-12-01T03:46:19.499Z,13.63
2022-12-01T03:48:45.813Z,13.78
2022-12-01T03:51:12.062Z,13.79
2022-12-01T03:53:38.316Z,13.88
2022-12-01T03:56:04.582Z,14.17
2022-12-01T03:58:30.845Z,14.33
2022-12-01T04:00:57.116Z,14.21
2022-12-01T04:03:23.409Z,14.73
2022-12-01T04:05:49.719Z,13.69
2022-12-01T04:08:15.994Z,13.84
2022-12-01T04:10:42.248Z,14.16
2022-12-01T04:13:08.501Z,13.77
2022-12-01T04:15:34.739Z,14.10
2022-12-01T04:18:01.003Z,13.82
2022-12-01T04:20:27.278Z,14.34
2022-12-01T04:22:53.615Z,14.39
2022-12-01T04:25:19.861Z,13.71
2022-12-01T04:27:46.127Z,13.66
2022-12-01T04:30:12.387Z,13.85
2022-12-01T04:32:38.639Z,13.22
2022-12-01T04:35:04.905Z,13.46
2022-12-01T04:37:31.171Z,13.46
2022-12-01T04:39:57.426Z,12.96
2022-12-01T04:42:23.678Z,13.10
2022-12-01T04:44:49.945Z,13.06
2022-12-01T04:47:16.206Z,13.14
2022-12-01T04:49:42.459Z,12.57
2022-12-01T04:52:08.706Z,12.21
2022-12-01T04:54:34.976Z,12.98
2022-12-01T04:57:01.255Z,17.05
2022-12-01T04:59:27.536Z,22.81
2022-12-01T05:01:53.921Z,14.00
2022-12-01T05:04:20.257Z,13.46
2022-12-01T05:06:46.508Z,15.26
2022-12-01T05:09:16.900Z,13.24
2022-12-01T05:11:43.918Z,12.53
2022-12-01T05:14:10.212Z,12.69
2022-12-01T05:16:36.556Z,12.98
2022-12-01T05:19:02.835Z,13.55
2022-12-01T05:21:29.112Z,13.55
2022-12-01T05:23:55.386Z,13.80
2022-12-01T05:26:21.667Z,13.49
2022-12-01T05:28:47.921Z,13.41
2022-12-01T05:31:14.262Z,12.96
2022-12-01T05:33:40.570Z,13.40
2022-12-01T05:36:07.185Z,13.31
2022-12-01T05:38:33.500Z,13.08
2022-12-01T05:40:59.777Z,12.92
2022-12-01T05:43:29.281Z,14.25
2022-12-01T05:45:56.161Z,13.30
2022-12-01T05:48:22.482Z,13.84
2022-12-01T05:50:48.735Z,13.68
2022-12-01T05:53:15.184Z,13.43
2022-12-01T05:55:41.459Z,13.90
2022-12-01T05:58:07.735Z,14.31
2022-12-01T06:00:34.024Z,14.10
2022-12-01T06:03:00.288Z,14.70
2022-12-01T06:05:26.567Z,14.73
2022-12-01T06:07:52.950Z,15.10
2022-12-01T06:10:19.243Z,15.12
2022-12-01T06:12:45.529Z,14.98
2022-12-01T06:15:11.818Z,15.00
2022-12-01T06:17:40.436Z,15.47
2022-12-01T06:20:06.956Z,15.27
2022-12-01T06:22:33.214Z,14.66
2022-12-01T06:24:59.471Z,16.14
2022-12-01T06:27:25.731Z,15.33
2022-12-01T06:29:52.297Z,14.34
2022-12-01T06:32:18.745Z,14.47
2022-12-01T06:34:44.993Z,13.96
2022-12-01T06:37:11.275Z,13.98
2022-12-01T06:39:37.521Z,14.15
2022-12-01T06:42:03.801Z,13.46
2022-12-01T06:44:30.078Z,14.06
2022-12-01T06:46:56.372Z,13.36
2022-12-01T06:49:22.649Z,13.74
2022-12-01T06:51:48.942Z,13.44
2022-12-01T06:54:15.205Z,13.81
2022-12-01T06:56:41.458Z,13.68
2022-12-01T06:59:07.907Z,14.12
2022-12-01T07:01:34.375Z,13.41
2022-12-01T07:04:00.693Z,13.38
2022-12-01T07:06:26.964Z,13.96
2022-12-01T07:08:53.278Z,13.66
2022-12-01T07:11:19.522Z,13.94
2022-12-01T07:13:45.800Z,13.91
2022-12-01T07:16:12.120Z,14.05
2022-12-01T07:18:38.416Z,14.42
2022-12-01T07:21:04.691Z,14.85
2022-12-01T07:23:30.969Z,14.24
2022-12-01T07:25:57.226Z,14.45
2022-12-01T07:28:23.483Z,14.63
2022-12-01T07:30:49.764Z,15.70
2022-12-01T07:33:16.073Z,15.44
2022-12-01T07:35:42.346Z,15.01
2022-12-01T07:38:08.626Z,15.92
2022-12-01T07:40:34.871Z,15.23
2022-12-01T07:43:01.152Z,15.93
2022-12-01T07:45:27.462Z,15.77
2022-12-01T07:47:53.783Z,15.00
2022-12-01T07:50:20.045Z,15.82
2022-12-01T07:52:46.313Z,15.27
2022-12-01T07:55:12.596Z,15.70
2022-12-01T07:57:38.878Z,15.15
2022-12-01T08:00:05.242Z,15.55
2022-12-01T08:02:31.568Z,15.73
2022-12-01T08:04:57.947Z,15.26
2022-12-01T08:07:28.448Z,15.02
2022-12-01T08:09:56.055Z,14.99
2022-12-01T08:12:22.405Z,15.81
2022-12-01T08:14:48.643Z,15.50
2022-12-01T08:17:14.930Z,15.58
2022-12-01T08:19:41.201Z,14.98
2022-12-01T08:22:07.481Z,14.99
2022-12-01T08:24:33.788Z,15.30
2022-12-01T08:27:00.084Z,14.74
2022-12-01T08:29:26.333Z,14.60
2022-12-01T08:31:52.610Z,14.02
2022-12-01T08:34:18.870Z,13.55
2022-12-01T08:36:45.142Z,13.37
2022-12-01T08:39:11.434Z,13.22
2022-12-01T08:41:37.755Z,13.18
2022-12-01T08:44:04.047Z,12.68
2022-12-01T08:46:30.363Z,12.99
2022-12-01T08:48:56.677Z,12.83
2022-12-01T08:51:22.946Z,13.28
2022-12-01T08:53:49.247Z,12.82
2022-12-01T08:56:15.499Z,12.71
2022-12-01T08:58:41.755Z,12.84
2022-12-01T09:01:09.098Z,12.34
2022-12-01T09:03:35.377Z,12.43
2022-12-01T09:06:01.675Z,12.51
2022-12-01T09:08:27.953Z,12.21
2022-12-01T09:10:54.236Z,12.16
2022-12-01T09:13:20.518Z,11.77
2022-12-01T09:15:46.841Z,11.97
2022-12-01T09:18:13.279Z,11.86
2022-12-01T09:20:39.527Z,11.55
2022-12-01T09:23:05.779Z,11.94
2022-12-01T09:25:32.016Z,11.78
2022-12-01T09:27:58.269Z,11.99
2022-12-01T09:30:24.553Z,11.91
2022-12-01T09:32:50.828Z,12.17
2022-12-01T09:35:22.005Z,12.20
2022-12-01T09:37:49.673Z,12.14
2022-12-01T09:40:15.925Z,11.64
2022-12-01T09:42:42.192Z,11.72
2022-12-01T09:45:08.520Z,11.61
2022-12-01T09:47:34.781Z,11.61
2022-12-01T09:50:01.038Z,11.73
2022-12-01T09:52:27.285Z,11.75
2022-12-01T09:54:53.536Z,11.46
2022-12-01T09:57:19.799Z,11.99
2022-12-01T09:59:46.160Z,11.48
2022-12-01T10:02:12.628Z,11.11
2022-12-01T10:04:38.936Z,12.28
2022-12-01T10:07:05.178Z,11.96
2022-12-01T10:09:31.429Z,11.59
2022-12-01T10:11:57.700Z,12.30
2022-12-01T10:14:23.971Z,12.96
2022-12-01T10:16:50.262Z,12.26
2022-12-01T10:19:16.515Z,11.97
2022-12-01T10:21:42.766Z,11.60
2022-12-01T10:24:09.301Z,12.03
2022-12-01T10:26:35.789Z,12.25
2022-12-01T10:29:02.094Z,11.45
2022-12-01T10:31:28.459Z,11.27
2022-12-01T10:33:54.813Z,11.19
2022-12-01T10:36:21.085Z,11.14
2022-12-01T10:38:47.392Z,11.46
2022-12-01T10:41:13.704Z,12.72
2022-12-01T10:43:39.972Z,12.46
2022-12-01T10:46:06.328Z,12.44
2022-12-01T10:48:32.667Z,12.44
2022-12-01T10:50:59.037Z,12.73
2022-12-01T10:53:25.376Z,12.67
2022-12-01T10:55:51.665Z,13.35
2022-12-01T10:58:18.463Z,13.81
2022-12-01T11:00:59.602Z,13.58
2022-12-01T11:03:27.269Z,13.68
2022-12-01T11:05:53.733Z,12.64
2022-12-01T11:08:20.056Z,12.99
2022-12-01T11:10:46.352Z,12.93
2022-12-01T11:13:12.613Z,12.82
2022-12-01T11:15:38.986Z,12.36
2022-12-01T11:18:07.124Z,12.16
2022-12-01T11:20:33.488Z,12.80
2022-12-01T11:22:59.813Z,12.92
2022-12-01T11:25:29.336Z,12.95
2022-12-01T11:27:55.640Z,13.81
2022-12-01T11:30:21.926Z,13.96
2022-12-01T11:32:48.233Z,14.11
2022-12-01T11:35:14.494Z,13.54
2022-12-01T11:37:41.962Z,13.69
2022-12-01T11:40:08.978Z,13.07
2022-12-01T11:42:35.296Z,13.74
2022-12-01T11:45:01.869Z,14.19
2022-12-01T11:47:28.325Z,13.91
2022-12-01T11:49:54.728Z,13.80
2022-12-01T11:52:21.229Z,13.75
2022-12-01T11:54:47.522Z,14.26
2022-12-01T11:57:33.618Z,14.23
2022-12-01T12:00:00.382Z,13.75
2022-12-01T12:02:26.686Z,14.26
2022-12-01T12:04:53.081Z,14.33
2022-12-01T12:07:19.487Z,13.78
2022-12-01T12:09:45.749Z,13.86
2022-12-01T12:12:12.036Z,13.67
2022-12-01T12:14:38.331Z,14.04
2022-12-01T12:17:04.623Z,13.39
2022-12-01T12:19:34.337Z,13.86
2022-12-01T12:22:11.655Z,13.85
2022-12-01T12:24:38.019Z,14.32
2022-12-01T12:27:04.586Z,26.51
2022-12-01T12:29:30.955Z,26.26
2022-12-01T12:31:57.224Z,17.74
2022-12-01T12:34:23.507Z,15.11
2022-12-01T12:36:49.987Z,14.90
2022-12-01T12:39:16.964Z,14.69
2022-12-01T12:41:43.441Z,14.43
2022-12-01T12:44:09.707Z,14.47
2022-12-01T12:46:36.011Z,14.75
2022-12-01T12:51:48.571Z,14.54
2022-12-01T12:54:15.095Z,15.15
2022-12-01T12:56:41.378Z,14.28
2022-12-01T12:59:07.622Z,15.02
2022-12-01T13:01:34.462Z,14.21
2022-12-01T13:04:00.771Z,14.05
2022-12-01T13:06:27.037Z,14.95
2022-12-01T13:08:53.441Z,14.22
2022-12-01T13:11:19.907Z,14.58
2022-12-01T13:13:46.194Z,14.01
2022-12-01T13:16:12.542Z,14.23
2022-12-01T13:18:39.142Z,14.17
2022-12-01T13:21:05.420Z,14.60
2022-12-01T13:23:31.674Z,14.30
2022-12-01T13:25:57.955Z,14.86
2022-12-01T13:28:24.422Z,14.35
2022-12-01T13:30:50.690Z,14.60
2022-12-01T13:33:16.973Z,13.68
2022-12-01T13:35:43.251Z,14.19
2022-12-01T13:38:09.691Z,13.95
2022-12-01T13:40:36.044Z,14.71
2022-12-01T13:43:08.617Z,14.31
2022-12-01T13:45:36.855Z,14.47
2022-12-01T13:48:03.122Z,14.65
2022-12-01T13:50:29.462Z,13.99
2022-12-01T13:52:55.755Z,14.28
2022-12-01T13:55:22.051Z,14.51
2022-12-01T13:57:48.316Z,14.86
2022-12-01T14:00:14.586Z,14.95
2022-12-01T14:02:41.009Z,15.07
2022-12-01T14:05:07.386Z,15.09
2022-12-01T14:07:33.753Z,14.95
2022-12-01T14:10:00.091Z,14.93
2022-12-01T14:12:26.392Z,15.12
2022-12-01T14:14:52.755Z,14.84
2022-12-01T14:17:19.029Z,15.45
2022-12-01T14:19:45.338Z,15.00
2022-12-01T14:22:11.609Z,15.52
2022-12-01T14:24:37.886Z,15.32
2022-12-01T14:27:04.162Z,15.09
2022-12-01T14:29:30.435Z,15.75
2022-12-01T14:31:56.762Z,15.75
2022-12-01T14:34:23.007Z,15.81
2022-12-01T14:36:49.257Z,15.98
2022-12-01T14:39:15.624Z,15.60
2022-12-01T14:41:41.883Z,16.16
2022-12-01T14:44:08.130Z,15.96
2022-12-01T14:46:34.437Z,15.41
2022-12-01T14:49:00.758Z,16.21
2022-12-01T14:51:27.040Z,15.68
2022-12-01T14:53:53.312Z,15.91
2022-12-01T14:56:19.648Z,16.37
2022-12-01T14:58:45.903Z,15.63
2022-12-01T15:01:12.222Z,16.07
2022-12-01T15:03:38.609Z,16.22
2022-12-01T15:06:04.903Z,15.71
2022-12-01T15:08:41.904Z,15.82
2022-12-01T15:11:11.325Z,16.44
2022-12-01T15:13:37.745Z,15.79
2022-12-01T15:16:04.138Z,16.63
2022-12-01T15:18:30.457Z,16.08
2022-12-01T15:20:56.715Z,15.99
2022-12-01T15:23:23.002Z,16.41
2022-12-01T15:25:49.279Z,16.24
2022-12-01T15:28:15.664Z,16.24
2022-12-01T15:30:41.911Z,15.75
2022-12-01T15:33:08.175Z,15.93
2022-12-01T15:35:34.437Z,15.86
2022-12-01T15:38:00.720Z,16.34
2022-12-01T15:43:13.316Z,16.56
2022-12-01T15:45:39.606Z,16.19
2022-12-01T15:48:05.899Z,16.30
2022-12-01T15:50:32.155Z,16.82
2022-12-01T15:52:58.455Z,16.80
2022-12-01T15:55:24.719Z,15.86
2022-12-01T15:57:51.012Z,16.72
2022-12-01T16:00:17.300Z,17.60
2022-12-01T16:02:43.640Z,16.70
2022-12-01T16:05:09.928Z,17.15
2022-12-01T16:08:04.887Z,17.28
2022-12-01T16:10:22.727Z,19.30
2022-12-01T16:12:48.990Z,20.49
2022-12-01T16:15:15.437Z,16.85
2022-12-01T16:17:41.745Z,17.49
2022-12-01T16:20:08.001Z,16.72
2022-12-01T16:22:34.279Z,17.43
2022-12-01T16:25:00.551Z,17.73
2022-12-01T16:27:26.831Z,17.59
2022-12-01T16:29:53.101Z,17.25
2022-12-01T16:32:21.038Z,17.31
2022-12-01T16:34:47.779Z,17.62
2022-12-01T16:37:14.151Z,17.56
2022-12-01T16:39:40.458Z,17.59
2022-12-01T16:42:06.783Z,18.31
2022-12-01T16:44:33.185Z,17.72
2022-12-01T16:46:59.492Z,18.04
2022-12-01T16:49:25.775Z,17.98
2022-12-01T16:51:56.831Z,18.56
2022-12-01T16:54:23.814Z,18.23
2022-12-01T16:56:50.087Z,18.32
2022-12-01T16:59:16.361Z,19.29
2022-12-01T17:01:42.700Z,19.58
2022-12-01T17:04:08.994Z,18.80
2022-12-01T17:06:35.242Z,18.57
2022-12-01T17:09:01.495Z,19.42
2022-12-01T17:11:27.763Z,19.74
2022-12-01T17:13:54.032Z,19.46
2022-12-01T17:16:20.427Z,19.58
2022-12-01T17:18:46.731Z,19.77
2022-12-01T17:21:12.980Z,19.58
2022-12-01T17:23:39.303Z,19.90
2022-12-01T17:26:05.566Z,20.12
2022-12-01T17:28:31.835Z,19.61
2022-12-01T17:30:58.154Z,20.50
2022-12-01T17:33:24.484Z,20.71
2022-12-01T17:35:50.767Z,20.60
2022-12-01T17:38:17.049Z,20.80
2022-12-01T17:40:43.328Z,21.52
2022-12-01T17:43:09.644Z,20.52
2022-12-01T17:45:35.926Z,20.21
2022-12-01T17:48:02.204Z,21.11
2022-12-01T17:50:28.475Z,20.87
2022-12-01T17:52:54.724Z,21.21
2022-12-01T17:55:21.009Z,20.67
2022-12-01T17:57:47.289Z,22.23
2022-12-01T18:00:13.575Z,20.50
2022-12-01T18:02:39.894Z,21.55
2022-12-01T18:05:06.206Z,20.96
2022-12-01T18:07:32.559Z,21.27
2022-12-01T18:09:58.848Z,21.28
2022-12-01T18:12:25.125Z,21.49
2022-12-01T18:14:51.521Z,21.29
2022-12-01T18:17:17.973Z,21.19
2022-12-01T18:19:44.248Z,21.47
2022-12-01T18:22:10.553Z,20.74
2022-12-01T18:24:36.888Z,20.93
2022-12-01T18:27:03.155Z,21.31
2022-12-01T18:29:29.413Z,21.49
2022-12-01T18:31:55.707Z,20.67
2022-12-01T18:34:21.976Z,21.38
2022-12-01T18:36:48.241Z,21.95
2022-12-01T18:39:14.508Z,21.74
2022-12-01T18:41:40.764Z,21.34
2022-12-01T18:44:07.045Z,21.44
2022-12-01T18:46:33.352Z,22.30
2022-12-01T18:48:59.640Z,21.65
2022-12-01T18:51:25.894Z,21.40
2022-12-01T18:53:52.184Z,21.75
2022-12-01T18:56:19.829Z,21.58
2022-12-01T18:58:46.232Z,21.99
2022-12-01T19:01:12.618Z,22.52
2022-12-01T19:03:38.940Z,22.06
2022-12-01T19:06:05.225Z,22.19
2022-12-01T19:08:31.483Z,21.92
2022-12-01T19:10:57.777Z,22.12
2022-12-01T19:13:24.059Z,22.86
2022-12-01T19:15:50.394Z,22.06
2022-12-01T19:18:16.702Z,21.62
2022-12-01T19:20:42.961Z,22.02
2022-12-01T19:23:09.325Z,22.49
2022-12-01T19:25:35.602Z,22.72
2022-12-01T19:28:01.887Z,22.74
2022-12-01T19:30:28.182Z,22.70
2022-12-01T19:32:54.449Z,22.52
2022-12-01T19:35:20.717Z,23.00
2022-12-01T19:37:46.975Z,22.75
2022-12-01T19:40:13.249Z,22.13
2022-12-01T19:42:39.522Z,22.84
2022-12-01T19:45:05.819Z,22.38
2022-12-01T19:47:32.106Z,22.89
2022-12-01T19:49:58.371Z,22.90
2022-12-01T19:52:24.686Z,23.29
2022-12-01T19:54:51.218Z,23.02
2022-12-01T19:57:17.609Z,22.56
2022-12-01T19:59:43.958Z,22.78
2022-12-01T20:02:10.310Z,22.88
2022-12-01T20:04:36.602Z,22.49
2022-12-01T20:07:02.877Z,22.23
2022-12-01T20:09:29.146Z,22.31
2022-12-01T20:11:55.431Z,22.87
2022-12-01T20:14:21.737Z,23.41
2022-12-01T20:16:48.069Z,22.99
2022-12-01T20:19:14.372Z,23.25
2022-12-01T20:21:40.650Z,23.53
2022-12-01T20:24:06.931Z,24.00
2022-12-01T20:26:33.199Z,23.86
2022-12-01T20:28:59.491Z,23.02
2022-12-01T20:31:25.827Z,23.16
2022-12-01T20:33:52.140Z,23.15
2022-12-01T20:36:18.404Z,23.38
2022-12-01T20:38:44.657Z,22.29
2022-12-01T20:41:10.938Z,23.44
2022-12-01T20:43:37.194Z,23.89
2022-12-01T20:46:03.633Z,24.14
2022-12-01T20:48:29.988Z,23.45
2022-12-01T20:50:56.240Z,23.48
2022-12-01T20:53:22.510Z,23.12
2022-12-01T20:55:48.790Z,23.14
2022-12-01T20:58:15.066Z,23.67
2022-12-01T21:00:41.440Z,23.56
2022-12-01T21:03:07.774Z,24.03
2022-12-01T21:05:34.132Z,23.52
2022-12-01T21:08:00.489Z,23.57
2022-12-01T21:10:26.797Z,23.50
2022-12-01T21:12:53.055Z,23.58
2022-12-01T21:15:19.342Z,24.33
2022-12-01T21:17:45.624Z,23.25
2022-12-01T21:20:11.885Z,23.68
2022-12-01T21:22:38.140Z,23.69
2022-12-01T21:25:04.399Z,23.35
2022-12-01T21:27:30.648Z,23.75
2022-12-01T21:29:56.902Z,23.19
2022-12-01T21:32:23.150Z,23.17
2022-12-01T21:34:49.885Z,22.64
2022-12-01T21:37:16.332Z,22.48
2022-12-01T21:39:42.606Z,22.79
2022-12-01T21:42:08.895Z,23.12
2022-12-01T21:44:35.193Z,23.14
2022-12-01T21:47:01.483Z,23.58
2022-12-01T21:49:27.842Z,22.92
2022-12-01T21:51:54.112Z,22.24
2022-12-01T21:54:20.368Z,22.72
2022-12-01T21:56:46.635Z,23.45
2022-12-01T21:59:12.894Z,22.40
2022-12-01T22:01:39.247Z,22.01
2022-12-01T22:04:05.562Z,22.06
2022-12-01T22:06:31.820Z,22.78
2022-12-01T22:08:58.083Z,22.37
2022-12-01T22:11:24.348Z,22.46
2022-12-01T22:13:50.615Z,22.23
2022-12-01T22:16:16.895Z,22.18
2022-12-01T22:18:43.195Z,22.39
2022-12-01T22:21:09.500Z,22.20
2022-12-01T22:23:35.870Z,23.33
2022-12-01T22:26:02.193Z,22.53
2022-12-01T22:28:28.465Z,21.88
2022-12-01T22:30:54.798Z,22.12
2022-12-01T22:33:21.144Z,21.65
2022-12-01T22:35:47.420Z,21.37
2022-12-01T22:38:13.681Z,22.68
2022-12-01T22:40:39.942Z,21.55
2022-12-01T22:43:12.505Z,21.45
2022-12-01T22:45:40.137Z,22.48
2022-12-01T22:48:06.402Z,21.92
2022-12-01T22:50:32.661Z,22.47
2022-12-01T22:52:58.918Z,22.76
2022-12-01T22:55:25.190Z,22.64
2022-12-01T22:57:51.459Z,22.39
2022-12-01T23:00:17.750Z,22.05
2022-12-01T23:02:44.197Z,22.49
2022-12-01T23:05:10.498Z,22.32
2022-12-01T23:07:36.847Z,22.31
2022-12-01T23:10:03.179Z,22.15
2022-12-01T23:12:29.525Z,22.05
2022-12-01T23:14:55.799Z,22.29
2022-12-01T23:17:22.077Z,22.84
2022-12-01T23:19:48.346Z,22.25
2022-12-01T23:22:14.610Z,22.10
2022-12-01T23:24:40.887Z,21.94
2022-12-01T23:27:07.161Z,22.53
2022-12-01T23:29:33.401Z,22.29
2022-12-01T23:31:59.718Z,22.07
2022-12-01T23:34:25.965Z,22.80
2022-12-01T23:36:52.214Z,22.89
2022-12-01T23:39:18.465Z,22.30
2022-12-01T23:41:44.909Z,22.25
2022-12-01T23:44:11.178Z,22.09
2022-12-01T23:46:37.512Z,22.41
2022-12-01T23:49:03.814Z,22.29
2022-12-01T23:51:30.061Z,22.84
2022-12-01T23:53:56.344Z,23.09
2022-12-01T23:56:22.594Z,23.36
2022-12-01T23:58:48.976Z,22.10
